Time;durP1;ratioP1;P1;durP2;ratioP2;P2;SDS_P1;SDS_P2;PMS_P1;PMS_P2;Temp;Humidity;BMP_temperature;BMP_pressure;BME280_temperature;BME280_humidity;BME280_pressure;Samples;Min_cycle;Max_cycle;Signal;HPM_P1;HPM_P2
2023/12/06 00:02:12;;;;;;;48.10;26.27;;;-3.80;1.00;;;;;;10392817;28;20473;-80
2023/12/06 00:07:33;;;;;;;48.93;25.87;;;-3.70;1.00;;;;;;10393306;28;20270;-82
2023/12/06 00:12:55;;;;;;;52.60;26.20;;;-3.70;1.00;;;;;;10408460;28;20193;-81
2023/12/06 00:18:16;;;;;;;52.83;27.03;;;-3.80;1.00;;;;;;10390638;28;20200;-78
2023/12/06 00:23:37;;;;;;;50.33;25.33;;;-3.90;1.00;;;;;;10412395;28;20224;-81
2023/12/06 00:28:59;;;;;;;47.20;25.40;;;-3.80;38.00;;;;;;10395215;28;20251;-80
2023/12/06 00:34:20;;;;;;;48.90;24.57;;;-3.80;1.00;;;;;;10399740;28;20205;-81
2023/12/06 00:39:41;;;;;;;50.03;25.63;;;-3.80;99.90;;;;;;10415443;28;20195;-81
2023/12/06 00:45:03;;;;;;;56.97;27.03;;;-3.80;1.00;;;;;;10398826;28;20228;-81
2023/12/06 00:50:24;;;;;;;62.03;29.47;;;-3.80;1.00;;;;;;10387324;28;20372;-80
2023/12/06 00:55:46;;;;;;;54.87;26.90;;;-3.80;1.00;;;;;;10386387;28;20219;-80
2023/12/06 01:01:07;;;;;;;53.13;25.37;;;-3.90;99.90;;;;;;10373400;28;20197;-81
2023/12/06 01:06:30;;;;;;;47.93;25.60;;;-3.90;33.10;;;;;;10389612;28;20245;-81
2023/12/06 01:11:51;;;;;;;47.83;26.53;;;-3.90;1.00;;;;;;10398552;28;20223;-81
2023/12/06 01:17:14;;;;;;;49.53;25.00;;;-3.90;1.00;;;;;;10396384;28;20197;-80
2023/12/06 01:22:35;;;;;;;45.60;23.93;;;-4.00;1.00;;;;;;10385235;28;20212;-81
2023/12/06 01:27:56;;;;;;;46.60;26.17;;;-4.10;31.50;;;;;;10399548;28;20220;-80
2023/12/06 01:33:18;;;;;;;48.37;24.70;;;-4.00;1.00;;;;;;10398877;28;20236;-80
2023/12/06 01:38:40;;;;;;;49.13;26.23;;;-4.10;99.90;;;;;;10401576;28;20421;-80
2023/12/06 01:44:01;;;;;;;47.67;25.73;;;-4.10;99.90;;;;;;10396829;28;20301;-82
2023/12/06 01:49:23;;;;;;;50.87;25.13;;;-4.20;49.20;;;;;;10385503;28;20225;-82
2023/12/06 01:54:45;;;;;;;47.30;25.10;;;-4.30;99.90;;;;;;10397387;28;20241;-80
2023/12/06 02:00:07;;;;;;;43.43;23.50;;;-4.30;99.90;;;;;;10398962;28;20203;-79
2023/12/06 02:05:31;;;;;;;46.73;24.03;;;-4.20;1.00;;;;;;10397682;28;20205;-80
2023/12/06 02:10:53;;;;;;;46.10;24.77;;;-4.30;51.40;;;;;;10384228;28;20441;-82
2023/12/06 02:16:15;;;;;;;48.20;24.73;;;-4.30;92.40;;;;;;10396703;28;20232;-82
2023/12/06 02:21:36;;;;;;;49.30;26.00;;;-4.30;1.00;;;;;;10383549;28;20198;-81
2023/12/06 02:26:58;;;;;;;44.20;23.97;;;-4.30;99.90;;;;;;10411416;28;20225;-81
2023/12/06 02:32:19;;;;;;;41.60;23.20;;;-4.20;99.90;;;;;;10396711;28;20190;-82
2023/12/06 02:37:43;;;;;;;43.93;23.73;;;-4.20;1.00;;;;;;10396921;28;20382;-82
2023/12/06 02:43:04;;;;;;;48.00;25.73;;;-4.20;60.70;;;;;;10383766;28;20289;-81
2023/12/06 02:48:26;;;;;;;47.90;24.13;;;-4.20;1.00;;;;;;10382850;28;20283;-81
2023/12/06 02:53:47;;;;;;;43.90;25.10;;;-4.20;1.00;;;;;;10381349;28;20232;-81
2023/12/06 02:59:08;;;;;;;48.60;25.50;;;-4.30;1.00;;;;;;10382482;28;20201;-82
2023/12/06 03:04:30;;;;;;;47.07;25.87;;;-4.30;99.90;;;;;;10381544;28;20288;-81
2023/12/06 03:09:51;;;;;;;46.00;24.57;;;-4.30;99.90;;;;;;10395225;28;20230;-82
2023/12/06 03:15:13;;;;;;;49.50;25.80;;;-4.20;99.90;;;;;;10393905;28;20293;-82
2023/12/06 03:20:34;;;;;;;49.47;26.57;;;-4.30;1.00;;;;;;10383766;28;20215;-81
2023/12/06 03:25:58;;;;;;;52.83;27.73;;;-4.40;1.00;;;;;;10381904;28;20229;-81
2023/12/06 03:31:19;;;;;;;53.67;27.33;;;-4.30;73.20;;;;;;10395761;28;20237;-81
2023/12/06 03:36:40;;;;;;;47.97;26.20;;;-4.60;20.70;;;;;;10376173;28;20205;-81
2023/12/06 03:42:02;;;;;;;49.67;26.73;;;-4.50;1.00;;;;;;10409077;28;20248;-82
2023/12/06 03:47:24;;;;;;;57.63;28.80;;;-4.60;99.90;;;;;;10380469;28;20479;-81
2023/12/06 03:52:45;;;;;;;59.70;28.77;;;-4.50;12.70;;;;;;10408376;28;20228;-81
2023/12/06 03:58:06;;;;;;;55.63;29.13;;;-4.50;99.90;;;;;;10395334;28;20214;-81
2023/12/06 04:03:28;;;;;;;56.43;27.73;;;-4.50;99.90;;;;;;10408580;28;20203;-82
2023/12/06 04:08:49;;;;;;;57.90;28.50;;;-4.60;99.90;;;;;;10400231;28;20251;-82
2023/12/06 04:14:10;;;;;;;61.10;29.53;;;-4.60;99.90;;;;;;10396903;28;20511;-82
2023/12/06 04:19:32;;;;;;;63.90;31.27;;;-4.70;1.00;;;;;;10374646;28;20195;-81
2023/12/06 04:24:53;;;;;;;62.23;29.87;;;-4.70;1.00;;;;;;10387530;28;20200;-81
2023/12/06 04:30:14;;;;;;;59.17;30.87;;;-4.80;99.90;;;;;;10407296;28;20304;-81
2023/12/06 04:35:36;;;;;;;59.33;30.07;;;-4.80;99.90;;;;;;10390705;28;20214;-80
2023/12/06 04:40:58;;;;;;;59.43;27.90;;;-4.90;99.90;;;;;;10398372;28;20193;-80
2023/12/06 04:46:19;;;;;;;61.63;30.00;;;-5.00;1.00;;;;;;10389636;28;20221;-81
2023/12/06 04:51:41;;;;;;;72.43;33.67;;;-5.00;1.00;;;;;;10393676;28;20481;-81
2023/12/06 04:57:03;;;;;;;80.50;33.43;;;-4.90;1.00;;;;;;10384937;28;20205;-82
2023/12/06 05:02:24;;;;;;;68.87;32.07;;;-4.80;1.00;;;;;;10398798;28;20300;-83
2023/12/06 05:07:45;;;;;;;69.23;33.23;;;-4.80;1.00;;;;;;10386088;28;20224;-81
2023/12/06 05:13:07;;;;;;;69.90;31.93;;;-4.80;1.00;;;;;;10398749;28;20204;-81
2023/12/06 05:18:28;;;;;;;73.87;33.30;;;-4.80;1.00;;;;;;10341130;28;20192;-81
2023/12/06 05:23:50;;;;;;;73.97;33.60;;;-4.80;48.00;;;;;;10397245;28;20200;-82
2023/12/06 05:29:11;;;;;;;78.50;34.40;;;-4.70;1.00;;;;;;10384320;28;20226;-82
2023/12/06 05:34:33;;;;;;;77.30;34.13;;;-4.80;1.00;;;;;;10385332;28;20546;-82
2023/12/06 05:39:54;;;;;;;79.57;35.80;;;-4.60;1.00;;;;;;10398616;28;20222;-82
2023/12/06 05:45:16;;;;;;;85.13;39.13;;;-4.60;99.90;;;;;;10385806;28;20221;-81
2023/12/06 05:50:37;;;;;;;88.23;39.57;;;-4.60;1.00;;;;;;10386132;28;20238;-81
2023/12/06 05:55:59;;;;;;;85.90;39.53;;;-4.60;85.40;;;;;;10335772;28;20519;-82
2023/12/06 06:01:20;;;;;;;81.40;37.50;;;-4.60;99.90;;;;;;10376256;28;20383;-82
2023/12/06 06:06:41;;;;;;;74.83;36.13;;;-4.60;1.00;;;;;;10380372;28;20214;-81
2023/12/06 06:12:03;;;;;;;88.43;39.57;;;-4.60;99.90;;;;;;10402737;28;20197;-83
2023/12/06 06:17:24;;;;;;;78.47;37.60;;;-4.60;1.00;;;;;;10405057;28;20197;-82
2023/12/06 06:22:46;;;;;;;79.23;35.50;;;-4.60;1.00;;;;;;10413352;28;20206;-83
2023/12/06 06:28:08;;;;;;;82.43;36.87;;;-4.60;1.00;;;;;;10415390;28;20217;-84
2023/12/06 06:33:30;;;;;;;90.13;37.63;;;-4.60;99.90;;;;;;10412836;28;20217;-82
2023/12/06 06:38:51;;;;;;;89.20;39.93;;;-4.50;1.00;;;;;;10336431;28;20376;-82
2023/12/06 06:44:13;;;;;;;86.73;37.37;;;-4.50;1.00;;;;;;10395583;28;20209;-82
2023/12/06 06:49:34;;;;;;;77.73;36.00;;;-4.50;1.00;;;;;;10410078;28;20304;-82
2023/12/06 06:54:56;;;;;;;94.30;39.50;;;-4.40;1.00;;;;;;10380594;28;20299;-82
2023/12/06 07:00:18;;;;;;;84.23;37.73;;;-4.50;99.90;;;;;;10384231;28;20194;-82
2023/12/06 07:05:39;;;;;;;84.03;36.33;;;-4.40;1.00;;;;;;10394897;28;20547;-82
2023/12/06 07:11:01;;;;;;;87.60;37.27;;;-4.30;99.90;;;;;;10394681;28;20434;-82
2023/12/06 07:16:22;;;;;;;94.20;40.07;;;-4.30;1.00;;;;;;10394277;28;20201;-82
2023/12/06 07:21:43;;;;;;;84.63;36.87;;;-4.30;99.90;;;;;;10367321;28;20281;-82
2023/12/06 07:27:04;;;;;;;75.07;33.87;;;-4.20;99.90;;;;;;10380572;28;20232;-82
2023/12/06 07:32:26;;;;;;;83.80;35.73;;;-4.20;99.90;;;;;;10396172;28;20205;-82
2023/12/06 07:37:47;;;;;;;82.73;35.37;;;-4.10;1.00;;;;;;10394188;28;20233;-81
2023/12/06 07:43:08;;;;;;;88.57;37.50;;;-4.10;1.00;;;;;;10394764;28;20247;-82
2023/12/06 07:48:30;;;;;;;79.80;36.03;;;-3.90;99.90;;;;;;10393927;28;20301;-82
2023/12/06 07:53:52;;;;;;;80.00;34.73;;;-3.90;1.00;;;;;;10392813;28;20299;-82
2023/12/06 07:59:13;;;;;;;95.63;37.97;;;-3.90;1.00;;;;;;10379966;28;20201;-82
2023/12/06 08:04:34;;;;;;;81.20;36.20;;;-3.80;99.90;;;;;;10378734;28;20228;-82
2023/12/06 08:09:55;;;;;;;87.37;38.47;;;-3.80;1.00;;;;;;10380163;28;20250;-82
2023/12/06 08:15:17;;;;;;;89.87;37.13;;;-3.90;1.00;;;;;;10375192;28;20204;-84
2023/12/06 08:20:39;;;;;;;94.87;36.77;;;-3.80;1.00;;;;;;10381092;28;20305;-84
2023/12/06 08:26:01;;;;;;;85.60;37.80;;;-3.80;1.00;;;;;;10374982;28;20258;-85
2023/12/06 08:31:22;;;;;;;85.40;37.80;;;-3.80;1.00;;;;;;10354452;28;20209;-84
2023/12/06 08:36:44;;;;;;;95.70;42.23;;;-3.70;99.90;;;;;;10389245;28;20237;-83
2023/12/06 08:42:06;;;;;;;101.50;40.50;;;-3.60;99.90;;;;;;10373198;28;20217;-82
2023/12/06 08:47:28;;;;;;;93.77;40.17;;;-3.50;99.90;;;;;;10374983;28;20229;-82
2023/12/06 08:52:49;;;;;;;85.37;37.27;;;-3.50;1.00;;;;;;10388856;28;20236;-82
2023/12/06 08:58:13;;;;;;;85.37;38.83;;;-3.40;1.00;;;;;;10381587;28;20202;-81
2023/12/06 09:03:35;;;;;;;84.83;36.93;;;-3.30;1.00;;;;;;10393778;28;20209;-83
2023/12/06 09:08:56;;;;;;;91.43;38.80;;;-3.30;99.90;;;;;;10409904;28;20326;-81
2023/12/06 09:14:17;;;;;;;83.73;37.13;;;-3.40;99.90;;;;;;10393178;28;20229;-81
2023/12/06 09:19:39;;;;;;;81.27;37.10;;;-3.30;1.00;;;;;;10367094;28;20200;-82
2023/12/06 09:25:00;;;;;;;80.43;36.50;;;-3.30;1.00;;;;;;10380301;28;20222;-82
2023/12/06 09:30:25;;;;;;;92.07;39.27;;;-3.30;1.00;;;;;;10371810;28;20236;-81
2023/12/06 09:35:47;;;;;;;76.33;34.77;;;-3.20;99.90;;;;;;10363873;28;20200;-80
2023/12/06 09:41:11;;;;;;;79.03;36.80;;;-3.20;99.90;;;;;;10365018;28;20490;-81
2023/12/06 09:46:32;;;;;;;75.00;35.00;;;-3.10;1.00;;;;;;10396138;28;20256;-80
2023/12/06 09:51:59;;;;;;;77.33;36.60;;;-3.20;1.00;;;;;;10371955;28;20243;-81
2023/12/06 09:57:21;;;;;;;89.60;38.13;;;-3.10;1.00;;;;;;10378719;28;20487;-82
2023/12/06 10:02:53;;;;;;;77.30;37.53;;;-3.00;1.00;;;;;;10391273;28;20208;-84
2023/12/06 10:08:14;;;;;;;78.70;35.83;;;-2.90;99.90;;;;;;10392114;28;20421;-80
2023/12/06 10:13:46;;;;;;;80.20;34.63;;;-2.80;1.00;;;;;;10409152;28;20289;-81
2023/12/06 10:19:10;;;;;;;70.33;32.03;;;-2.80;99.90;;;;;;10392738;28;20285;-82
2023/12/06 10:24:31;;;;;;;71.07;32.87;;;-2.80;1.00;;;;;;10375408;28;20456;-80
2023/12/06 10:29:53;;;;;;;75.17;33.33;;;-2.80;1.00;;;;;;10372930;28;20265;-80
2023/12/06 10:35:17;;;;;;;76.70;35.13;;;-2.80;1.00;;;;;;10354816;28;20251;-85
2023/12/06 10:40:38;;;;;;;75.87;33.87;;;-2.90;1.00;;;;;;10380121;28;20223;-80
2023/12/06 10:46:00;;;;;;;80.50;37.03;;;-2.90;1.00;;;;;;10386711;28;20276;-81
2023/12/06 10:51:23;;;;;;;77.03;36.07;;;-2.80;1.00;;;;;;10408702;28;20244;-80
2023/12/06 10:56:46;;;;;;;80.00;35.50;;;-2.80;99.90;;;;;;10349498;28;20281;-80
2023/12/06 11:02:10;;;;;;;70.23;31.67;;;-2.80;99.90;;;;;;10388238;28;20530;-81
2023/12/06 11:07:38;;;;;;;73.40;31.10;;;-2.70;1.00;;;;;;10389992;28;20229;-80
2023/12/06 11:13:02;;;;;;;76.77;34.17;;;-2.60;99.90;;;;;;10374351;28;20208;-81
2023/12/06 11:18:27;;;;;;;86.27;35.27;;;-2.40;99.90;;;;;;10374439;28;20212;-80
2023/12/06 11:23:48;;;;;;;72.60;33.67;;;-2.40;99.90;;;;;;10382633;28;20476;-80
2023/12/06 11:29:09;;;;;;;76.43;34.13;;;-2.40;1.00;;;;;;10362317;28;20251;-81
2023/12/06 11:34:36;;;;;;;77.10;35.13;;;-2.40;1.00;;;;;;10400816;28;20209;-81
2023/12/06 11:40:18;;;;;;;67.77;32.90;;;-2.40;99.90;;;;;;10402919;28;20209;-83
2023/12/06 11:45:39;;;;;;;79.73;34.63;;;-2.50;1.00;;;;;;10375053;28;20229;-81
2023/12/06 11:51:04;;;;;;;86.77;37.07;;;-2.50;1.00;;;;;;10402525;28;20252;-80
2023/12/06 11:56:26;;;;;;;93.17;40.83;;;-2.40;1.00;;;;;;10388321;28;20241;-81
2023/12/06 12:01:48;;;;;;;81.63;35.40;;;-2.30;99.90;;;;;;10400752;28;20201;-80
2023/12/06 12:07:09;;;;;;;78.57;34.07;;;-2.40;99.90;;;;;;10384100;28;20511;-81
2023/12/06 12:12:39;;;;;;;76.73;33.03;;;-2.30;99.90;;;;;;10376534;28;20396;-80
2023/12/06 12:18:02;;;;;;;83.33;36.17;;;-2.40;35.10;;;;;;10385757;28;20204;-81
2023/12/06 12:23:29;;;;;;;84.27;37.27;;;-2.40;99.90;;;;;;10369609;28;20277;-80
2023/12/06 12:28:50;;;;;;;95.50;41.57;;;-2.40;1.00;;;;;;10354732;28;20275;-80
2023/12/06 12:34:12;;;;;;;104.07;44.03;;;-2.40;87.60;;;;;;10400078;28;20198;-80
2023/12/06 12:39:33;;;;;;;89.43;37.23;;;-2.30;99.90;;;;;;10372536;28;20204;-80
2023/12/06 12:44:55;;;;;;;88.53;38.67;;;-2.40;1.00;;;;;;10397242;28;20197;-80
2023/12/06 12:50:21;;;;;;;82.20;36.63;;;-2.50;1.00;;;;;;10422705;28;20308;-80
2023/12/06 12:55:43;;;;;;;76.33;35.00;;;-2.30;1.00;;;;;;10395109;28;20278;-80
2023/12/06 13:01:07;;;;;;;74.60;32.10;;;-2.40;1.00;;;;;;10384340;28;20249;-81
2023/12/06 13:06:28;;;;;;;68.73;31.60;;;-2.60;1.00;;;;;;10395334;28;20259;-80
2023/12/06 13:11:52;;;;;;;74.33;32.80;;;-2.50;99.90;;;;;;10390929;28;20229;-80
2023/12/06 13:17:14;;;;;;;80.80;36.70;;;-2.50;99.90;;;;;;10381062;28;20516;-80
2023/12/06 13:22:35;;;;;;;81.73;36.27;;;-2.40;99.90;;;;;;10396199;28;20229;-80
2023/12/06 13:27:56;;;;;;;81.43;37.03;;;-2.40;1.00;;;;;;10395615;28;20302;-79
2023/12/06 13:33:18;;;;;;;83.73;34.90;;;-2.30;1.00;;;;;;10385513;28;20221;-79
2023/12/06 13:38:40;;;;;;;87.90;39.80;;;-2.40;99.90;;;;;;10382509;28;20225;-80
2023/12/06 13:44:02;;;;;;;80.17;36.53;;;-2.40;1.00;;;;;;10397350;28;20233;-79
2023/12/06 13:49:24;;;;;;;99.20;43.13;;;-2.40;1.00;;;;;;10405326;28;20571;-80
2023/12/06 13:54:45;;;;;;;86.30;38.97;;;-2.30;99.90;;;;;;10399103;28;20243;-81
2023/12/06 14:00:08;;;;;;;77.00;33.63;;;-2.30;25.50;;;;;;10417422;28;20281;-81
2023/12/06 14:05:34;;;;;;;73.10;33.27;;;-2.50;54.20;;;;;;10411944;28;20197;-80
2023/12/06 14:10:56;;;;;;;88.87;38.77;;;-2.40;1.00;;;;;;10384062;28;20220;-83
2023/12/06 14:16:21;;;;;;;80.37;37.80;;;-2.40;99.90;;;;;;10387948;28;20209;-79
2023/12/06 14:21:43;;;;;;;87.27;40.03;;;-2.40;75.30;;;;;;10411113;28;20197;-79
2023/12/06 14:27:04;;;;;;;89.83;39.07;;;-2.50;1.00;;;;;;10397267;28;20546;-79
2023/12/06 14:32:25;;;;;;;86.20;38.13;;;-2.40;1.00;;;;;;10400019;28;20273;-78
2023/12/06 14:37:47;;;;;;;83.40;36.90;;;-2.40;1.00;;;;;;10400019;28;20204;-79
2023/12/06 14:43:09;;;;;;;83.87;37.17;;;-2.50;1.00;;;;;;10390165;28;20289;-78
2023/12/06 14:48:30;;;;;;;88.73;40.50;;;-2.50;99.90;;;;;;10400490;28;20232;-79
2023/12/06 14:53:51;;;;;;;91.60;40.57;;;-2.40;1.00;;;;;;10397908;28;20543;-79
2023/12/06 14:59:14;;;;;;;91.33;40.10;;;-2.40;17.40;;;;;;10393802;28;20288;-78
2023/12/06 15:04:35;;;;;;;90.43;39.20;;;-2.30;1.00;;;;;;10385815;28;20218;-81
2023/12/06 15:09:58;;;;;;;85.83;38.13;;;-2.30;99.90;;;;;;10404241;28;20224;-79
2023/12/06 15:15:19;;;;;;;87.83;39.13;;;-2.30;1.00;;;;;;10384852;28;20202;-78
2023/12/06 15:20:41;;;;;;;92.43;42.37;;;-2.30;35.70;;;;;;10382550;28;20211;-79
2023/12/06 15:26:03;;;;;;;93.27;42.37;;;-2.30;99.90;;;;;;10432370;28;20209;-79
2023/12/06 15:31:24;;;;;;;95.93;43.47;;;-2.20;1.00;;;;;;10391816;28;20225;-79
2023/12/06 15:36:48;;;;;;;95.90;42.10;;;-2.10;3.00;;;;;;10418343;28;20196;-79
2023/12/06 15:42:11;;;;;;;87.00;41.30;;;-2.10;1.00;;;;;;10413094;28;20508;-78
2023/12/06 15:47:32;;;;;;;80.57;38.23;;;-2.20;3.20;;;;;;10377512;28;20300;-78
2023/12/06 15:52:54;;;;;;;81.40;39.93;;;-2.20;1.00;;;;;;10392705;28;20237;-78
2023/12/06 15:58:15;;;;;;;81.33;37.03;;;-2.10;99.90;;;;;;10382229;28;20575;-81
2023/12/06 16:03:37;;;;;;;85.90;40.30;;;-2.10;1.00;;;;;;10397427;28;20232;-81
2023/12/06 16:09:03;;;;;;;80.07;39.23;;;-2.00;99.90;;;;;;10389405;28;20257;-82
2023/12/06 16:14:26;;;;;;;95.83;45.17;;;-2.00;1.00;;;;;;10392091;28;20198;-82
2023/12/06 16:19:47;;;;;;;98.63;44.93;;;-2.00;1.00;;;;;;10380891;28;20225;-82
2023/12/06 16:25:10;;;;;;;95.50;43.67;;;-2.00;1.00;;;;;;10397111;28;20197;-83
2023/12/06 16:30:35;;;;;;;107.23;47.07;;;-2.00;99.90;;;;;;10387206;28;20226;-82
2023/12/06 16:35:57;;;;;;;100.23;45.17;;;-1.90;1.00;;;;;;10389808;28;20201;-82
2023/12/06 16:41:19;;;;;;;97.33;44.83;;;-1.90;99.90;;;;;;10429038;28;20197;-82
2023/12/06 16:46:41;;;;;;;92.00;42.23;;;-1.90;1.00;;;;;;10392006;28;20244;-83
2023/12/06 16:52:03;;;;;;;87.70;41.60;;;-1.90;1.00;;;;;;10381497;28;20244;-82
2023/12/06 16:57:25;;;;;;;76.03;38.50;;;-1.90;99.90;;;;;;10373763;28;20241;-82
2023/12/06 17:02:47;;;;;;;75.17;37.80;;;-1.90;1.00;;;;;;10379291;28;20210;-82
2023/12/06 17:08:09;;;;;;;79.60;39.47;;;-1.80;1.00;;;;;;10346795;28;20261;-83
2023/12/06 17:13:30;;;;;;;90.80;44.00;;;-1.80;1.00;;;;;;10389018;28;20215;-82
2023/12/06 17:18:53;;;;;;;77.03;38.47;;;-1.90;99.90;;;;;;10379520;28;20213;-82
2023/12/06 17:24:15;;;;;;;83.17;39.37;;;-1.80;1.00;;;;;;10399826;28;20224;-82
2023/12/06 17:29:37;;;;;;;68.33;34.40;;;-1.80;99.90;;;;;;10385852;28;20221;-82
2023/12/06 17:34:59;;;;;;;80.83;37.63;;;-1.80;99.90;;;;;;10399493;28;20435;-82
2023/12/06 17:40:20;;;;;;;79.77;38.23;;;-1.90;1.00;;;;;;10398790;28;20394;-82
2023/12/06 17:45:43;;;;;;;75.93;35.70;;;-1.80;1.00;;;;;;10398586;28;20284;-82
2023/12/06 17:51:05;;;;;;;79.73;38.27;;;-1.80;99.90;;;;;;10371089;28;20314;-82
2023/12/06 17:56:26;;;;;;;86.53;39.87;;;-1.80;99.90;;;;;;10398188;28;20200;-82
2023/12/06 18:01:51;;;;;;;84.47;41.37;;;-2.00;99.90;;;;;;10412391;28;20202;-82
2023/12/06 18:07:14;;;;;;;77.43;38.67;;;-2.00;1.00;;;;;;10391421;28;20207;-82
2023/12/06 18:12:35;;;;;;;80.80;40.87;;;-1.90;1.00;;;;;;10401066;28;20285;-82
2023/12/06 18:17:56;;;;;;;81.67;40.53;;;-1.90;99.90;;;;;;10391904;28;20232;-82
2023/12/06 18:23:18;;;;;;;77.33;38.67;;;-1.90;1.00;;;;;;10392206;28;20269;-82
2023/12/06 18:28:39;;;;;;;81.50;39.57;;;-1.90;1.00;;;;;;10384366;28;20214;-82
2023/12/06 18:34:00;;;;;;;80.17;40.70;;;-1.90;1.00;;;;;;10404565;28;20233;-82
2023/12/06 18:39:22;;;;;;;79.80;38.90;;;-1.90;79.00;;;;;;10396567;28;20205;-82
2023/12/06 18:44:43;;;;;;;80.13;39.07;;;-1.90;1.00;;;;;;10396456;28;20227;-82
2023/12/06 18:50:05;;;;;;;70.63;35.37;;;-1.90;1.00;;;;;;10396148;28;20223;-82
2023/12/06 18:55:27;;;;;;;74.03;37.17;;;-2.00;1.00;;;;;;10381607;28;20187;-82
2023/12/06 19:00:49;;;;;;;81.50;39.33;;;-1.90;99.90;;;;;;10395327;28;20573;-82
2023/12/06 19:06:11;;;;;;;78.23;37.37;;;-1.90;1.00;;;;;;10381257;28;20256;-82
2023/12/06 19:11:32;;;;;;;83.60;39.40;;;-1.90;99.90;;;;;;10397841;28;20531;-83
2023/12/06 19:16:54;;;;;;;82.67;39.27;;;-2.00;1.00;;;;;;10381413;28;20554;-82
2023/12/06 19:22:15;;;;;;;96.27;43.30;;;-1.90;1.00;;;;;;10394800;28;20221;-82
2023/12/06 19:27:37;;;;;;;81.97;39.03;;;-1.80;99.90;;;;;;10388595;28;20229;-82
2023/12/06 19:32:58;;;;;;;78.73;37.77;;;-1.80;99.90;;;;;;10394225;28;20216;-82
2023/12/06 19:38:21;;;;;;;75.77;37.57;;;-1.80;1.00;;;;;;10394129;28;20209;-82
2023/12/06 19:43:42;;;;;;;84.77;41.27;;;-1.70;1.00;;;;;;10395390;28;20237;-81
2023/12/06 19:49:03;;;;;;;83.73;38.57;;;-1.70;1.00;;;;;;10393844;28;20301;-82
2023/12/06 19:54:24;;;;;;;82.33;37.77;;;-1.70;1.00;;;;;;10405635;28;20308;-81
2023/12/06 19:59:46;;;;;;;80.63;40.10;;;-1.80;1.00;;;;;;10377127;28;20227;-82
2023/12/06 20:05:08;;;;;;;73.20;38.07;;;-1.80;38.90;;;;;;10402813;28;20468;-82
2023/12/06 20:10:30;;;;;;;80.83;39.73;;;-1.90;99.90;;;;;;10364588;28;20284;-82
2023/12/06 20:15:51;;;;;;;82.73;39.47;;;-1.90;99.90;;;;;;10393801;28;20198;-82
2023/12/06 20:21:12;;;;;;;76.00;36.80;;;-1.90;99.90;;;;;;10379630;28;20272;-82
2023/12/06 20:26:34;;;;;;;83.90;39.63;;;-1.90;1.00;;;;;;10377942;28;20256;-81
2023/12/06 20:31:55;;;;;;;85.03;39.93;;;-1.90;65.80;;;;;;10394207;28;20269;-82
2023/12/06 20:37:16;;;;;;;73.40;37.00;;;-2.00;99.90;;;;;;10377673;28;20441;-82
2023/12/06 20:42:38;;;;;;;67.47;33.73;;;-2.00;99.90;;;;;;10391383;28;20198;-82
2023/12/06 20:47:59;;;;;;;76.53;37.53;;;-2.00;1.00;;;;;;10363661;28;20388;-81
2023/12/06 20:53:21;;;;;;;82.07;38.90;;;-2.00;1.00;;;;;;10414775;28;20240;-82
2023/12/06 20:58:42;;;;;;;73.83;35.77;;;-2.00;99.90;;;;;;10400407;28;20278;-81
2023/12/06 21:04:04;;;;;;;70.17;35.10;;;-1.90;1.00;;;;;;10377428;28;20212;-82
2023/12/06 21:09:25;;;;;;;79.50;37.03;;;-1.90;99.90;;;;;;10398189;28;20228;-82
2023/12/06 21:14:47;;;;;;;75.17;37.13;;;-2.00;99.90;;;;;;10385840;28;20197;-81
2023/12/06 21:20:09;;;;;;;76.30;38.57;;;-2.00;3.40;;;;;;10385537;28;20556;-82
2023/12/06 21:25:30;;;;;;;75.97;34.43;;;-2.00;99.90;;;;;;10399363;28;20198;-82
2023/12/06 21:30:51;;;;;;;79.07;36.67;;;-2.10;23.80;;;;;;10399107;28;20279;-82
2023/12/06 21:36:13;;;;;;;78.27;36.97;;;-2.00;1.00;;;;;;10383352;28;20212;-82
2023/12/06 21:41:35;;;;;;;84.47;37.17;;;-2.10;1.00;;;;;;10383858;28;20275;-82
2023/12/06 21:46:56;;;;;;;72.77;35.57;;;-2.10;99.90;;;;;;10397719;28;20197;-81
2023/12/06 21:52:17;;;;;;;82.43;39.07;;;-2.10;1.00;;;;;;10410563;28;20284;-81
2023/12/06 21:57:38;;;;;;;83.80;38.80;;;-2.10;1.00;;;;;;10379191;28;20479;-82
2023/12/06 22:02:59;;;;;;;85.07;39.47;;;-2.00;1.00;;;;;;10356049;28;20545;-82
2023/12/06 22:08:21;;;;;;;73.87;35.93;;;-2.10;1.00;;;;;;10383581;28;20216;-82
2023/12/06 22:13:42;;;;;;;82.20;38.13;;;-2.10;1.00;;;;;;10399675;28;20201;-83
2023/12/06 22:19:03;;;;;;;83.27;38.70;;;-2.20;1.00;;;;;;10411591;28;20233;-82
2023/12/06 22:24:25;;;;;;;90.40;39.67;;;-2.20;99.90;;;;;;10383259;28;20232;-82
2023/12/06 22:29:46;;;;;;;81.57;39.00;;;-2.10;99.90;;;;;;10381265;28;20310;-81
2023/12/06 22:35:07;;;;;;;75.20;36.30;;;-2.10;1.00;;;;;;10396600;28;20523;-82
2023/12/06 22:40:29;;;;;;;79.47;37.20;;;-2.10;99.90;;;;;;10396642;28;20223;-81
2023/12/06 22:45:50;;;;;;;78.77;35.57;;;-2.10;1.00;;;;;;10396531;28;20201;-82
2023/12/06 22:51:12;;;;;;;81.27;36.97;;;-2.00;99.90;;;;;;10409480;28;20240;-80
2023/12/06 22:56:34;;;;;;;76.30;36.10;;;-2.10;1.00;;;;;;10395811;28;20201;-82
2023/12/06 23:01:55;;;;;;;79.20;36.23;;;-2.00;99.90;;;;;;10348819;28;20214;-82
2023/12/06 23:07:17;;;;;;;77.63;36.80;;;-2.00;1.00;;;;;;10385246;28;20266;-81
2023/12/06 23:12:40;;;;;;;71.40;36.87;;;-2.00;1.00;;;;;;10394499;28;20543;-82
2023/12/06 23:18:03;;;;;;;82.70;38.27;;;-2.00;1.00;;;;;;10395056;28;20221;-82
2023/12/06 23:23:24;;;;;;;77.03;35.57;;;-2.00;1.00;;;;;;10409173;28;20190;-82
2023/12/06 23:28:45;;;;;;;88.50;38.10;;;-1.90;99.90;;;;;;10395577;28;20227;-82
2023/12/06 23:34:07;;;;;;;83.57;38.63;;;-1.90;99.90;;;;;;10380805;28;20357;-82
2023/12/06 23:39:28;;;;;;;83.83;38.00;;;-2.00;1.00;;;;;;10397037;28;20200;-82
2023/12/06 23:44:49;;;;;;;79.50;36.00;;;-1.90;1.00;;;;;;10394204;28;20360;-81
2023/12/06 23:50:11;;;;;;;82.27;36.70;;;-1.90;1.00;;;;;;10366152;28;20490;-81
2023/12/06 23:55:32;;;;;;;83.60;36.83;;;-1.90;1.00;;;;;;10380287;28;20366;-82
